Van Buren Bay, New York
Current Conditions -  °F | °C
As of 8:53 PM on Wednesday 17 Dec 2014 (Local Time) from KDKK Reporting Station
Light Snow Light Snow  
Wind Chill: 21°   Ceiling: 2200
Heat Index: 32°   Visibility: 10mi
Dew Point: 25°   Wind: 17mph
Humidity: 75%   Direction: 270°W
Pressure: 30.03"   Gusts: 30mph
Location:  42.4464°N, 79.4226°W
Report Text: KDKK 180153Z AUTO 27015G26KT 10SM -SN OVC022 00/M04 A3003 RMK AO2 PK WND 29026/0144 SNB52 SLP176 P0000 T00001039
Loading
Personal Weather Stations






























Interactive Weather Map New forecast layout! Learn more

10-Day Weather Forecast

Advertisements
Track Severe Weather on mobile